sensor_id;sensor_type;location;lat;lon;timestamp;temperature;humidity
2893;DHT22;1456;51.840;12.184;2023-04-29T00:01:13;12.00;99.90
2893;DHT22;1456;51.840;12.184;2023-04-29T00:03:39;11.90;99.90
2893;DHT22;1456;51.840;12.184;2023-04-29T00:06:10;11.70;99.90
2893;DHT22;1456;51.840;12.184;2023-04-29T00:08:37;11.60;99.90
2893;DHT22;1456;51.840;12.184;2023-04-29T00:11:05;11.70;99.90
2893;DHT22;1456;51.840;12.184;2023-04-29T00:13:32;11.70;99.90
2893;DHT22;1456;51.840;12.184;2023-04-29T00:16:00;11.70;99.90
2893;DHT22;1456;51.840;12.184;2023-04-29T00:18:26;11.70;99.90
2893;DHT22;1456;51.840;12.184;2023-04-29T00:20:52;11.80;99.90
2893;DHT22;1456;51.840;12.184;2023-04-29T00:23:18;11.90;99.90
2893;DHT22;1456;51.840;12.184;2023-04-29T00:25:53;11.90;99.90
2893;DHT22;1456;51.840;12.184;2023-04-29T00:28:19;11.90;99.90
2893;DHT22;1456;51.840;12.184;2023-04-29T00:30:53;11.90;99.90
2893;DHT22;1456;51.840;12.184;2023-04-29T00:33:19;11.90;99.90
2893;DHT22;1456;51.840;12.184;2023-04-29T00:35:45;12.00;99.90
2893;DHT22;1456;51.840;12.184;2023-04-29T00:38:11;12.10;99.90
2893;DHT22;1456;51.840;12.184;2023-04-29T00:40:37;12.20;99.90
2893;DHT22;1456;51.840;12.184;2023-04-29T00:43:02;12.20;99.90
2893;DHT22;1456;51.840;12.184;2023-04-29T00:45:29;12.30;99.90
2893;DHT22;1456;51.840;12.184;2023-04-29T00:47:56;12.40;99.90
2893;DHT22;1456;51.840;12.184;2023-04-29T00:50:22;12.40;99.90
2893;DHT22;1456;51.840;12.184;2023-04-29T00:52:59;12.40;99.90
2893;DHT22;1456;51.840;12.184;2023-04-29T00:55:26;12.50;99.90
2893;DHT22;1456;51.840;12.184;2023-04-29T00:57:52;12.50;99.90
2893;DHT22;1456;51.840;12.184;2023-04-29T01:00:19;12.50;99.90
2893;DHT22;1456;51.840;12.184;2023-04-29T01:02:45;12.60;99.90
2893;DHT22;1456;51.840;12.184;2023-04-29T01:05:11;12.60;99.90
2893;DHT22;1456;51.840;12.184;2023-04-29T01:07:44;12.60;99.90
2893;DHT22;1456;51.840;12.184;2023-04-29T01:10:21;12.70;99.90
2893;DHT22;1456;51.840;12.184;2023-04-29T01:15:48;12.70;99.90
2893;DHT22;1456;51.840;12.184;2023-04-29T01:18:28;12.80;99.90
2893;DHT22;1456;51.840;12.184;2023-04-29T01:20:56;12.80;99.90
2893;DHT22;1456;51.840;12.184;2023-04-29T01:23:32;12.80;99.90
2893;DHT22;1456;51.840;12.184;2023-04-29T01:25:59;12.80;99.90
2893;DHT22;1456;51.840;12.184;2023-04-29T01:28:39;12.80;99.90
2893;DHT22;1456;51.840;12.184;2023-04-29T01:31:39;12.90;99.90
2893;DHT22;1456;51.840;12.184;2023-04-29T01:34:33;12.90;99.90
2893;DHT22;1456;51.840;12.184;2023-04-29T01:42:46;12.80;99.90
2893;DHT22;1456;51.840;12.184;2023-04-29T01:45:17;12.60;99.90
2893;DHT22;1456;51.840;12.184;2023-04-29T01:47:46;12.60;99.90
2893;DHT22;1456;51.840;12.184;2023-04-29T01:50:14;12.60;99.90
2893;DHT22;1456;51.840;12.184;2023-04-29T01:52:41;12.50;99.90
2893;DHT22;1456;51.840;12.184;2023-04-29T01:55:08;12.50;99.90
2893;DHT22;1456;51.840;12.184;2023-04-29T01:57:35;12.60;99.90
2893;DHT22;1456;51.840;12.184;2023-04-29T02:00:01;12.60;99.90
2893;DHT22;1456;51.840;12.184;2023-04-29T02:02:33;12.50;99.90
2893;DHT22;1456;51.840;12.184;2023-04-29T02:04:58;12.50;99.90
2893;DHT22;1456;51.840;12.184;2023-04-29T02:07:29;12.40;99.90
2893;DHT22;1456;51.840;12.184;2023-04-29T02:09:56;12.30;99.90
2893;DHT22;1456;51.840;12.184;2023-04-29T02:12:21;12.30;99.90
2893;DHT22;1456;51.840;12.184;2023-04-29T02:14:51;12.20;99.90
2893;DHT22;1456;51.840;12.184;2023-04-29T02:17:18;12.20;99.90
2893;DHT22;1456;51.840;12.184;2023-04-29T02:19:45;12.20;99.90
2893;DHT22;1456;51.840;12.184;2023-04-29T02:22:11;12.20;99.90
2893;DHT22;1456;51.840;12.184;2023-04-29T02:24:38;12.20;99.90
2893;DHT22;1456;51.840;12.184;2023-04-29T02:27:04;12.30;99.90
2893;DHT22;1456;51.840;12.184;2023-04-29T02:29:32;12.30;99.90
2893;DHT22;1456;51.840;12.184;2023-04-29T02:31:59;12.30;99.90
2893;DHT22;1456;51.840;12.184;2023-04-29T02:34:33;12.30;99.90
2893;DHT22;1456;51.840;12.184;2023-04-29T02:37:00;12.20;99.90
2893;DHT22;1456;51.840;12.184;2023-04-29T02:39:25;12.20;99.90
2893;DHT22;1456;51.840;12.184;2023-04-29T02:41:54;12.10;99.90
2893;DHT22;1456;51.840;12.184;2023-04-29T02:44:20;12.00;99.90
2893;DHT22;1456;51.840;12.184;2023-04-29T02:46:46;12.00;99.90
2893;DHT22;1456;51.840;12.184;2023-04-29T02:49:14;12.10;99.90
2893;DHT22;1456;51.840;12.184;2023-04-29T02:51:41;12.10;99.90
2893;DHT22;1456;51.840;12.184;2023-04-29T02:54:07;12.20;99.90
2893;DHT22;1456;51.840;12.184;2023-04-29T02:56:35;12.20;99.90
2893;DHT22;1456;51.840;12.184;2023-04-29T02:59:01;12.20;99.90
2893;DHT22;1456;51.840;12.184;2023-04-29T03:01:27;12.30;99.90
2893;DHT22;1456;51.840;12.184;2023-04-29T03:03:54;12.20;99.90
2893;DHT22;1456;51.840;12.184;2023-04-29T03:06:21;12.10;99.90
2893;DHT22;1456;51.840;12.184;2023-04-29T03:08:47;12.00;99.90
2893;DHT22;1456;51.840;12.184;2023-04-29T03:11:14;12.00;99.90
2893;DHT22;1456;51.840;12.184;2023-04-29T03:13:44;12.00;99.90
2893;DHT22;1456;51.840;12.184;2023-04-29T03:16:12;12.10;99.90
2893;DHT22;1456;51.840;12.184;2023-04-29T03:18:39;12.10;99.90
2893;DHT22;1456;51.840;12.184;2023-04-29T03:21:06;12.10;99.90
2893;DHT22;1456;51.840;12.184;2023-04-29T03:23:34;12.10;99.90
2893;DHT22;1456;51.840;12.184;2023-04-29T03:26:02;12.10;99.90
2893;DHT22;1456;51.840;12.184;2023-04-29T03:28:29;12.00;99.90
2893;DHT22;1456;51.840;12.184;2023-04-29T03:30:55;12.00;99.90
2893;DHT22;1456;51.840;12.184;2023-04-29T03:33:21;12.00;99.90
2893;DHT22;1456;51.840;12.184;2023-04-29T03:35:48;12.00;99.90
2893;DHT22;1456;51.840;12.184;2023-04-29T03:38:15;12.10;99.90
2893;DHT22;1456;51.840;12.184;2023-04-29T03:40:41;12.10;99.90
2893;DHT22;1456;51.840;12.184;2023-04-29T03:43:09;12.20;99.90
2893;DHT22;1456;51.840;12.184;2023-04-29T03:45:34;12.10;99.90
2893;DHT22;1456;51.840;12.184;2023-04-29T03:48:00;12.10;99.90
2893;DHT22;1456;51.840;12.184;2023-04-29T03:50:29;12.10;99.90
2893;DHT22;1456;51.840;12.184;2023-04-29T03:52:57;12.10;99.90
2893;DHT22;1456;51.840;12.184;2023-04-29T03:55:22;12.10;99.90
2893;DHT22;1456;51.840;12.184;2023-04-29T03:57:49;12.20;99.90
2893;DHT22;1456;51.840;12.184;2023-04-29T04:00:15;12.30;99.90
2893;DHT22;1456;51.840;12.184;2023-04-29T04:02:41;12.30;99.90
2893;DHT22;1456;51.840;12.184;2023-04-29T04:05:07;12.40;99.90
2893;DHT22;1456;51.840;12.184;2023-04-29T04:07:32;12.40;99.90
2893;DHT22;1456;51.840;12.184;2023-04-29T04:09:59;12.50;99.90
2893;DHT22;1456;51.840;12.184;2023-04-29T04:12:25;12.60;99.90
2893;DHT22;1456;51.840;12.184;2023-04-29T04:14:50;12.60;99.90
2893;DHT22;1456;51.840;12.184;2023-04-29T04:17:18;12.60;99.90
2893;DHT22;1456;51.840;12.184;2023-04-29T04:19:44;12.70;99.90
2893;DHT22;1456;51.840;12.184;2023-04-29T04:22:09;12.70;99.90
2893;DHT22;1456;51.840;12.184;2023-04-29T04:24:36;12.60;99.90
2893;DHT22;1456;51.840;12.184;2023-04-29T04:27:03;12.60;99.90
2893;DHT22;1456;51.840;12.184;2023-04-29T04:29:30;12.60;99.90
2893;DHT22;1456;51.840;12.184;2023-04-29T04:31:57;12.50;99.90
2893;DHT22;1456;51.840;12.184;2023-04-29T04:34:29;12.40;99.90
2893;DHT22;1456;51.840;12.184;2023-04-29T04:36:56;12.40;99.90
2893;DHT22;1456;51.840;12.184;2023-04-29T04:39:22;12.40;99.90
2893;DHT22;1456;51.840;12.184;2023-04-29T04:41:47;12.40;99.90
2893;DHT22;1456;51.840;12.184;2023-04-29T04:44:13;12.40;99.90
2893;DHT22;1456;51.840;12.184;2023-04-29T04:46:42;12.40;99.90
2893;DHT22;1456;51.840;12.184;2023-04-29T04:49:08;12.40;99.90
2893;DHT22;1456;51.840;12.184;2023-04-29T04:51:34;12.40;99.90
2893;DHT22;1456;51.840;12.184;2023-04-29T04:53:59;12.40;99.90
2893;DHT22;1456;51.840;12.184;2023-04-29T04:56:25;12.40;99.90
2893;DHT22;1456;51.840;12.184;2023-04-29T04:58:58;12.40;99.90
2893;DHT22;1456;51.840;12.184;2023-04-29T05:01:26;12.30;99.90
2893;DHT22;1456;51.840;12.184;2023-04-29T05:03:52;12.30;99.90
2893;DHT22;1456;51.840;12.184;2023-04-29T05:06:31;12.30;99.90
2893;DHT22;1456;51.840;12.184;2023-04-29T05:09:00;12.30;99.90
2893;DHT22;1456;51.840;12.184;2023-04-29T05:11:25;12.30;99.90
2893;DHT22;1456;51.840;12.184;2023-04-29T05:13:51;12.30;99.90
2893;DHT22;1456;51.840;12.184;2023-04-29T05:16:24;12.30;99.90
2893;DHT22;1456;51.840;12.184;2023-04-29T05:18:56;12.30;99.90
2893;DHT22;1456;51.840;12.184;2023-04-29T05:21:22;12.30;99.90
2893;DHT22;1456;51.840;12.184;2023-04-29T05:23:52;12.30;99.90
2893;DHT22;1456;51.840;12.184;2023-04-29T05:26:19;12.40;99.90
2893;DHT22;1456;51.840;12.184;2023-04-29T05:28:45;12.50;99.90
2893;DHT22;1456;51.840;12.184;2023-04-29T05:31:11;12.50;99.90
2893;DHT22;1456;51.840;12.184;2023-04-29T05:33:44;12.60;99.90
2893;DHT22;1456;51.840;12.184;2023-04-29T05:36:09;12.60;99.90
2893;DHT22;1456;51.840;12.184;2023-04-29T05:38:36;12.60;99.90
2893;DHT22;1456;51.840;12.184;2023-04-29T05:41:10;12.70;99.90
2893;DHT22;1456;51.840;12.184;2023-04-29T05:43:37;12.80;99.90
2893;DHT22;1456;51.840;12.184;2023-04-29T05:46:05;12.90;99.90
2893;DHT22;1456;51.840;12.184;2023-04-29T05:48:31;13.00;99.90
2893;DHT22;1456;51.840;12.184;2023-04-29T05:50:57;13.00;99.90
2893;DHT22;1456;51.840;12.184;2023-04-29T05:53:23;13.10;99.90
2893;DHT22;1456;51.840;12.184;2023-04-29T05:55:50;13.10;99.90
2893;DHT22;1456;51.840;12.184;2023-04-29T05:58:21;13.10;99.90
2893;DHT22;1456;51.840;12.184;2023-04-29T06:00:47;13.10;99.90
2893;DHT22;1456;51.840;12.184;2023-04-29T06:03:13;13.20;99.90
2893;DHT22;1456;51.840;12.184;2023-04-29T06:05:39;13.20;99.90
2893;DHT22;1456;51.840;12.184;2023-04-29T06:08:15;13.30;99.90
2893;DHT22;1456;51.840;12.184;2023-04-29T06:10:42;13.40;99.90
2893;DHT22;1456;51.840;12.184;2023-04-29T06:13:07;13.50;99.90
2893;DHT22;1456;51.840;12.184;2023-04-29T06:15:34;13.50;99.90
2893;DHT22;1456;51.840;12.184;2023-04-29T06:18:02;13.50;99.90
2893;DHT22;1456;51.840;12.184;2023-04-29T06:20:27;13.40;99.90
2893;DHT22;1456;51.840;12.184;2023-04-29T06:22:55;13.40;99.90
2893;DHT22;1456;51.840;12.184;2023-04-29T06:25:22;13.40;99.90
2893;DHT22;1456;51.840;12.184;2023-04-29T06:27:49;13.30;99.90
2893;DHT22;1456;51.840;12.184;2023-04-29T06:30:15;13.30;99.90
2893;DHT22;1456;51.840;12.184;2023-04-29T06:32:42;13.30;99.90
2893;DHT22;1456;51.840;12.184;2023-04-29T06:35:09;13.10;99.90
2893;DHT22;1456;51.840;12.184;2023-04-29T06:37:35;12.90;99.90
2893;DHT22;1456;51.840;12.184;2023-04-29T06:40:06;12.70;99.90
2893;DHT22;1456;51.840;12.184;2023-04-29T06:42:33;12.60;99.90
2893;DHT22;1456;51.840;12.184;2023-04-29T06:45:03;12.60;99.90
2893;DHT22;1456;51.840;12.184;2023-04-29T06:47:32;12.60;99.90
2893;DHT22;1456;51.840;12.184;2023-04-29T06:49:58;12.70;99.90
2893;DHT22;1456;51.840;12.184;2023-04-29T06:52:25;12.80;99.90
2893;DHT22;1456;51.840;12.184;2023-04-29T06:54:52;12.80;99.90
2893;DHT22;1456;51.840;12.184;2023-04-29T06:57:32;12.80;99.90
2893;DHT22;1456;51.840;12.184;2023-04-29T07:00:00;12.80;99.90
2893;DHT22;1456;51.840;12.184;2023-04-29T07:02:28;12.70;99.90
2893;DHT22;1456;51.840;12.184;2023-04-29T07:04:57;12.70;99.90
2893;DHT22;1456;51.840;12.184;2023-04-29T07:07:34;12.70;99.90
2893;DHT22;1456;51.840;12.184;2023-04-29T07:10:01;12.70;99.90
2893;DHT22;1456;51.840;12.184;2023-04-29T07:12:26;12.70;99.90
2893;DHT22;1456;51.840;12.184;2023-04-29T07:14:53;12.60;99.90
2893;DHT22;1456;51.840;12.184;2023-04-29T07:17:25;12.60;99.90
2893;DHT22;1456;51.840;12.184;2023-04-29T07:19:50;12.50;99.90
2893;DHT22;1456;51.840;12.184;2023-04-29T07:22:18;12.50;99.90
2893;DHT22;1456;51.840;12.184;2023-04-29T07:24:45;12.50;99.90
2893;DHT22;1456;51.840;12.184;2023-04-29T07:27:15;12.60;99.90
2893;DHT22;1456;51.840;12.184;2023-04-29T07:29:41;12.60;99.90
2893;DHT22;1456;51.840;12.184;2023-04-29T07:32:09;12.70;99.90
2893;DHT22;1456;51.840;12.184;2023-04-29T07:34:34;12.60;99.90
2893;DHT22;1456;51.840;12.184;2023-04-29T07:37:03;12.70;99.90
2893;DHT22;1456;51.840;12.184;2023-04-29T07:39:29;12.60;99.90
2893;DHT22;1456;51.840;12.184;2023-04-29T07:42:15;12.60;99.90
2893;DHT22;1456;51.840;12.184;2023-04-29T07:44:42;12.60;99.90
2893;DHT22;1456;51.840;12.184;2023-04-29T07:47:13;12.60;99.90
2893;DHT22;1456;51.840;12.184;2023-04-29T07:49:38;12.40;99.90
2893;DHT22;1456;51.840;12.184;2023-04-29T07:52:06;12.40;99.90
2893;DHT22;1456;51.840;12.184;2023-04-29T07:54:35;12.30;99.90
2893;DHT22;1456;51.840;12.184;2023-04-29T07:57:04;12.30;99.90
2893;DHT22;1456;51.840;12.184;2023-04-29T07:59:30;12.30;99.90
2893;DHT22;1456;51.840;12.184;2023-04-29T08:01:58;12.20;99.90
2893;DHT22;1456;51.840;12.184;2023-04-29T08:04:30;12.20;99.90
2893;DHT22;1456;51.840;12.184;2023-04-29T08:06:55;12.20;99.90
2893;DHT22;1456;51.840;12.184;2023-04-29T08:09:30;12.20;99.90
2893;DHT22;1456;51.840;12.184;2023-04-29T08:11:59;12.10;99.90
2893;DHT22;1456;51.840;12.184;2023-04-29T08:14:26;12.20;99.90
2893;DHT22;1456;51.840;12.184;2023-04-29T08:16:55;12.10;99.90
2893;DHT22;1456;51.840;12.184;2023-04-29T08:19:22;12.10;99.90
2893;DHT22;1456;51.840;12.184;2023-04-29T08:21:51;12.10;99.90
2893;DHT22;1456;51.840;12.184;2023-04-29T08:24:18;12.00;99.90
2893;DHT22;1456;51.840;12.184;2023-04-29T08:26:57;12.00;99.90
2893;DHT22;1456;51.840;12.184;2023-04-29T08:29:23;11.80;99.90
2893;DHT22;1456;51.840;12.184;2023-04-29T08:31:51;11.70;99.90
2893;DHT22;1456;51.840;12.184;2023-04-29T08:34:17;11.60;99.90
2893;DHT22;1456;51.840;12.184;2023-04-29T08:36:43;11.60;99.90
2893;DHT22;1456;51.840;12.184;2023-04-29T08:39:10;11.60;99.90
2893;DHT22;1456;51.840;12.184;2023-04-29T08:41:36;11.60;99.90
2893;DHT22;1456;51.840;12.184;2023-04-29T08:44:05;11.60;99.90
2893;DHT22;1456;51.840;12.184;2023-04-29T08:46:33;11.50;99.90
2893;DHT22;1456;51.840;12.184;2023-04-29T08:49:02;11.50;99.90
2893;DHT22;1456;51.840;12.184;2023-04-29T08:51:28;11.50;99.90
2893;DHT22;1456;51.840;12.184;2023-04-29T08:53:58;11.60;99.90
2893;DHT22;1456;51.840;12.184;2023-04-29T08:56:33;11.50;99.90
2893;DHT22;1456;51.840;12.184;2023-04-29T08:59:01;11.50;99.90
2893;DHT22;1456;51.840;12.184;2023-04-29T09:01:30;11.30;99.90
2893;DHT22;1456;51.840;12.184;2023-04-29T09:04:26;11.30;99.90
2893;DHT22;1456;51.840;12.184;2023-04-29T09:06:55;11.30;99.90
2893;DHT22;1456;51.840;12.184;2023-04-29T09:09:22;11.20;99.90
2893;DHT22;1456;51.840;12.184;2023-04-29T09:11:53;11.10;99.90
2893;DHT22;1456;51.840;12.184;2023-04-29T09:14:21;11.10;99.90
2893;DHT22;1456;51.840;12.184;2023-04-29T09:16:49;11.10;99.90
2893;DHT22;1456;51.840;12.184;2023-04-29T09:19:32;11.20;99.90
2893;DHT22;1456;51.840;12.184;2023-04-29T09:21:59;11.10;99.90
2893;DHT22;1456;51.840;12.184;2023-04-29T09:24:29;11.00;99.90
2893;DHT22;1456;51.840;12.184;2023-04-29T09:27:02;10.90;99.90
2893;DHT22;1456;51.840;12.184;2023-04-29T09:29:36;10.80;99.90
2893;DHT22;1456;51.840;12.184;2023-04-29T09:32:19;10.80;99.90
2893;DHT22;1456;51.840;12.184;2023-04-29T09:34:45;10.90;99.90
2893;DHT22;1456;51.840;12.184;2023-04-29T09:37:25;10.90;99.90
2893;DHT22;1456;51.840;12.184;2023-04-29T09:39:52;11.00;99.90
2893;DHT22;1456;51.840;12.184;2023-04-29T09:42:18;11.10;99.90
2893;DHT22;1456;51.840;12.184;2023-04-29T09:44:45;11.10;99.90
2893;DHT22;1456;51.840;12.184;2023-04-29T09:47:12;11.10;99.90
2893;DHT22;1456;51.840;12.184;2023-04-29T09:49:40;11.10;99.90
2893;DHT22;1456;51.840;12.184;2023-04-29T09:52:09;11.10;99.90
2893;DHT22;1456;51.840;12.184;2023-04-29T09:54:37;11.00;99.90
2893;DHT22;1456;51.840;12.184;2023-04-29T09:57:04;11.00;99.90
2893;DHT22;1456;51.840;12.184;2023-04-29T09:59:38;11.10;99.90
2893;DHT22;1456;51.840;12.184;2023-04-29T10:02:17;11.20;99.90
2893;DHT22;1456;51.840;12.184;2023-04-29T10:04:53;11.20;99.90
2893;DHT22;1456;51.840;12.184;2023-04-29T10:07:21;11.30;99.90
2893;DHT22;1456;51.840;12.184;2023-04-29T10:09:47;11.30;99.90
2893;DHT22;1456;51.840;12.184;2023-04-29T10:12:16;11.30;99.90
2893;DHT22;1456;51.840;12.184;2023-04-29T10:15:02;11.30;99.90
2893;DHT22;1456;51.840;12.184;2023-04-29T10:17:39;11.20;99.90
2893;DHT22;1456;51.840;12.184;2023-04-29T10:20:13;11.20;99.90
2893;DHT22;1456;51.840;12.184;2023-04-29T10:22:49;11.30;99.90
2893;DHT22;1456;51.840;12.184;2023-04-29T10:25:18;11.40;99.90
2893;DHT22;1456;51.840;12.184;2023-04-29T10:27:50;11.60;99.90
2893;DHT22;1456;51.840;12.184;2023-04-29T10:30:18;11.80;99.90
2893;DHT22;1456;51.840;12.184;2023-04-29T10:32:47;11.90;99.90
2893;DHT22;1456;51.840;12.184;2023-04-29T10:35:15;11.90;99.90
2893;DHT22;1456;51.840;12.184;2023-04-29T10:37:45;12.10;99.90
2893;DHT22;1456;51.840;12.184;2023-04-29T10:40:15;12.20;99.90
2893;DHT22;1456;51.840;12.184;2023-04-29T10:42:52;12.20;99.90
2893;DHT22;1456;51.840;12.184;2023-04-29T10:45:22;12.20;99.90
2893;DHT22;1456;51.840;12.184;2023-04-29T10:53:16;12.30;99.90
2893;DHT22;1456;51.840;12.184;2023-04-29T10:55:47;12.40;99.90
2893;DHT22;1456;51.840;12.184;2023-04-29T11:00:58;12.90;99.90
2893;DHT22;1456;51.840;12.184;2023-04-29T11:03:56;13.20;99.90
2893;DHT22;1456;51.840;12.184;2023-04-29T11:09:26;13.20;99.90
2893;DHT22;1456;51.840;12.184;2023-04-29T11:17:00;12.90;99.90
2893;DHT22;1456;51.840;12.184;2023-04-29T11:19:45;13.00;99.90
2893;DHT22;1456;51.840;12.184;2023-04-29T11:24:53;13.30;99.90
2893;DHT22;1456;51.840;12.184;2023-04-29T11:27:22;13.30;99.90
2893;DHT22;1456;51.840;12.184;2023-04-29T11:29:51;13.20;99.90
2893;DHT22;1456;51.840;12.184;2023-04-29T11:32:22;13.10;99.90
2893;DHT22;1456;51.840;12.184;2023-04-29T11:34:48;13.10;99.90
2893;DHT22;1456;51.840;12.184;2023-04-29T11:37:25;13.10;99.90
2893;DHT22;1456;51.840;12.184;2023-04-29T11:39:58;13.30;99.90
2893;DHT22;1456;51.840;12.184;2023-04-29T11:42:34;13.50;99.90
2893;DHT22;1456;51.840;12.184;2023-04-29T11:45:00;13.80;99.90
2893;DHT22;1456;51.840;12.184;2023-04-29T11:47:29;14.20;99.90
2893;DHT22;1456;51.840;12.184;2023-04-29T11:50:05;14.40;99.90
2893;DHT22;1456;51.840;12.184;2023-04-29T11:52:36;14.60;99.90
2893;DHT22;1456;51.840;12.184;2023-04-29T11:55:08;14.60;99.90
2893;DHT22;1456;51.840;12.184;2023-04-29T11:57:35;14.80;99.90
2893;DHT22;1456;51.840;12.184;2023-04-29T12:00:00;14.70;99.90
2893;DHT22;1456;51.840;12.184;2023-04-29T12:02:30;14.40;99.90
2893;DHT22;1456;51.840;12.184;2023-04-29T12:04:57;14.50;99.90
2893;DHT22;1456;51.840;12.184;2023-04-29T12:07:24;14.70;99.90
2893;DHT22;1456;51.840;12.184;2023-04-29T12:09:50;14.70;99.90
2893;DHT22;1456;51.840;12.184;2023-04-29T12:12:16;14.60;99.90
2893;DHT22;1456;51.840;12.184;2023-04-29T12:14:43;14.70;99.90
2893;DHT22;1456;51.840;12.184;2023-04-29T12:17:10;15.20;99.90
2893;DHT22;1456;51.840;12.184;2023-04-29T12:19:36;15.90;99.90
2893;DHT22;1456;51.840;12.184;2023-04-29T12:22:04;16.10;99.90
2893;DHT22;1456;51.840;12.184;2023-04-29T12:24:38;16.40;99.90
2893;DHT22;1456;51.840;12.184;2023-04-29T12:27:09;16.40;99.90
2893;DHT22;1456;51.840;12.184;2023-04-29T12:29:38;16.20;99.90
2893;DHT22;1456;51.840;12.184;2023-04-29T12:32:12;16.50;99.90
2893;DHT22;1456;51.840;12.184;2023-04-29T12:34:44;16.50;99.90
2893;DHT22;1456;51.840;12.184;2023-04-29T12:37:16;16.40;99.90
2893;DHT22;1456;51.840;12.184;2023-04-29T12:39:42;16.40;99.90
2893;DHT22;1456;51.840;12.184;2023-04-29T12:42:14;16.40;99.90
2893;DHT22;1456;51.840;12.184;2023-04-29T12:44:46;17.30;99.90
2893;DHT22;1456;51.840;12.184;2023-04-29T12:47:13;18.80;99.90
2893;DHT22;1456;51.840;12.184;2023-04-29T12:49:44;19.90;98.20
2893;DHT22;1456;51.840;12.184;2023-04-29T12:52:10;19.80;96.90
2893;DHT22;1456;51.840;12.184;2023-04-29T12:54:39;19.80;96.70
2893;DHT22;1456;51.840;12.184;2023-04-29T12:57:11;19.70;96.70
2893;DHT22;1456;51.840;12.184;2023-04-29T12:59:37;19.40;96.30
2893;DHT22;1456;51.840;12.184;2023-04-29T13:02:03;19.10;96.80
2893;DHT22;1456;51.840;12.184;2023-04-29T13:04:30;19.40;97.00
2893;DHT22;1456;51.840;12.184;2023-04-29T13:06:56;19.70;96.50
2893;DHT22;1456;51.840;12.184;2023-04-29T13:09:30;19.70;95.90
2893;DHT22;1456;51.840;12.184;2023-04-29T13:11:56;19.50;96.10
2893;DHT22;1456;51.840;12.184;2023-04-29T13:14:22;19.40;96.30
2893;DHT22;1456;51.840;12.184;2023-04-29T13:16:47;19.30;95.90
2893;DHT22;1456;51.840;12.184;2023-04-29T13:19:13;19.20;95.90
2893;DHT22;1456;51.840;12.184;2023-04-29T13:21:39;19.20;95.50
2893;DHT22;1456;51.840;12.184;2023-04-29T13:24:05;19.00;95.90
2893;DHT22;1456;51.840;12.184;2023-04-29T13:26:31;19.30;95.50
2893;DHT22;1456;51.840;12.184;2023-04-29T13:29:03;19.40;95.30
2893;DHT22;1456;51.840;12.184;2023-04-29T13:31:28;19.30;95.50
2893;DHT22;1456;51.840;12.184;2023-04-29T13:33:54;19.90;95.60
2893;DHT22;1456;51.840;12.184;2023-04-29T13:36:20;19.70;94.90
2893;DHT22;1456;51.840;12.184;2023-04-29T13:38:46;18.90;95.50
2893;DHT22;1456;51.840;12.184;2023-04-29T13:41:13;18.10;96.00
2893;DHT22;1456;51.840;12.184;2023-04-29T13:43:38;17.20;96.90
2893;DHT22;1456;51.840;12.184;2023-04-29T13:46:04;16.70;97.90
2893;DHT22;1456;51.840;12.184;2023-04-29T13:48:31;16.30;98.70
2893;DHT22;1456;51.840;12.184;2023-04-29T13:50:57;16.20;99.10
2893;DHT22;1456;51.840;12.184;2023-04-29T13:53:30;16.00;99.10
2893;DHT22;1456;51.840;12.184;2023-04-29T13:55:56;15.90;98.90
2893;DHT22;1456;51.840;12.184;2023-04-29T13:58:22;15.90;99.10
2893;DHT22;1456;51.840;12.184;2023-04-29T14:00:47;16.00;99.20
2893;DHT22;1456;51.840;12.184;2023-04-29T14:03:14;16.40;99.10
2893;DHT22;1456;51.840;12.184;2023-04-29T14:05:43;16.70;98.20
2893;DHT22;1456;51.840;12.184;2023-04-29T14:08:12;16.80;97.70
2893;DHT22;1456;51.840;12.184;2023-04-29T14:10:38;16.90;97.90
2893;DHT22;1456;51.840;12.184;2023-04-29T14:13:04;17.20;97.10
2893;DHT22;1456;51.840;12.184;2023-04-29T14:15:31;17.50;97.40
2893;DHT22;1456;51.840;12.184;2023-04-29T14:17:57;18.10;96.70
2893;DHT22;1456;51.840;12.184;2023-04-29T14:20:23;18.40;96.00
2893;DHT22;1456;51.840;12.184;2023-04-29T14:22:49;18.30;95.60
2893;DHT22;1456;51.840;12.184;2023-04-29T14:25:15;18.10;94.80
2893;DHT22;1456;51.840;12.184;2023-04-29T14:27:41;17.90;94.50
2893;DHT22;1456;51.840;12.184;2023-04-29T14:30:13;17.80;94.50
2893;DHT22;1456;51.840;12.184;2023-04-29T14:32:45;17.80;95.00
2893;DHT22;1456;51.840;12.184;2023-04-29T14:35:13;17.80;93.90
2893;DHT22;1456;51.840;12.184;2023-04-29T14:37:40;17.90;94.60
2893;DHT22;1456;51.840;12.184;2023-04-29T14:40:06;17.90;94.80
2893;DHT22;1456;51.840;12.184;2023-04-29T14:42:34;18.00;95.30
2893;DHT22;1456;51.840;12.184;2023-04-29T14:45:00;18.00;95.50
2893;DHT22;1456;51.840;12.184;2023-04-29T14:47:32;18.20;95.40
2893;DHT22;1456;51.840;12.184;2023-04-29T14:49:58;18.20;95.00
2893;DHT22;1456;51.840;12.184;2023-04-29T14:52:23;18.10;95.10
2893;DHT22;1456;51.840;12.184;2023-04-29T14:54:51;17.90;95.70
2893;DHT22;1456;51.840;12.184;2023-04-29T14:57:16;17.80;95.50
2893;DHT22;1456;51.840;12.184;2023-04-29T14:59:42;17.40;95.50
2893;DHT22;1456;51.840;12.184;2023-04-29T15:02:10;17.20;95.90
2893;DHT22;1456;51.840;12.184;2023-04-29T15:04:42;17.10;96.20
2893;DHT22;1456;51.840;12.184;2023-04-29T15:07:14;17.00;96.50
2893;DHT22;1456;51.840;12.184;2023-04-29T15:09:41;16.90;96.10
2893;DHT22;1456;51.840;12.184;2023-04-29T15:12:10;16.80;96.60
2893;DHT22;1456;51.840;12.184;2023-04-29T15:14:39;16.80;96.90
2893;DHT22;1456;51.840;12.184;2023-04-29T15:17:07;16.90;96.60
2893;DHT22;1456;51.840;12.184;2023-04-29T15:19:33;16.80;96.60
2893;DHT22;1456;51.840;12.184;2023-04-29T15:21:59;16.40;96.60
2893;DHT22;1456;51.840;12.184;2023-04-29T15:24:25;16.20;97.20
2893;DHT22;1456;51.840;12.184;2023-04-29T15:26:53;16.00;97.00
2893;DHT22;1456;51.840;12.184;2023-04-29T15:29:19;15.80;97.40
2893;DHT22;1456;51.840;12.184;2023-04-29T15:31:48;15.60;97.70
2893;DHT22;1456;51.840;12.184;2023-04-29T15:34:22;15.50;97.80
2893;DHT22;1456;51.840;12.184;2023-04-29T15:36:54;15.60;98.10
2893;DHT22;1456;51.840;12.184;2023-04-29T15:39:20;15.70;98.10
2893;DHT22;1456;51.840;12.184;2023-04-29T15:41:46;15.70;97.90
2893;DHT22;1456;51.840;12.184;2023-04-29T15:44:12;15.70;98.00
2893;DHT22;1456;51.840;12.184;2023-04-29T15:46:40;15.80;97.60
2893;DHT22;1456;51.840;12.184;2023-04-29T15:49:07;15.80;97.20
2893;DHT22;1456;51.840;12.184;2023-04-29T15:51:33;15.80;97.40
2893;DHT22;1456;51.840;12.184;2023-04-29T15:54:00;15.90;97.60
2893;DHT22;1456;51.840;12.184;2023-04-29T15:56:39;16.00;97.90
2893;DHT22;1456;51.840;12.184;2023-04-29T15:59:05;16.00;97.30
2893;DHT22;1456;51.840;12.184;2023-04-29T16:01:31;15.90;97.80
2893;DHT22;1456;51.840;12.184;2023-04-29T16:03:56;15.80;97.70
2893;DHT22;1456;51.840;12.184;2023-04-29T16:06:32;15.70;97.60
2893;DHT22;1456;51.840;12.184;2023-04-29T16:09:01;15.70;97.50
2893;DHT22;1456;51.840;12.184;2023-04-29T16:11:28;15.60;97.80
2893;DHT22;1456;51.840;12.184;2023-04-29T16:13:54;15.70;97.60
2893;DHT22;1456;51.840;12.184;2023-04-29T16:16:19;15.70;97.40
2893;DHT22;1456;51.840;12.184;2023-04-29T16:18:46;15.60;97.30
2893;DHT22;1456;51.840;12.184;2023-04-29T16:21:12;15.80;97.60